Reklama

Seznam meteostanic a jejich METAR

Vyhledat místa podle abecedy:
A B C D E F G H I J K L M N O P Q R S T U V W X Y Z

Filtrovat:

ID stanice:
a/nebo
Název místa (fulltext):
 
Místo (ID)Naposledy načteno 
Zadar (LDZD) 06.12.2019 00:00 UTC Zobrazit METAR
LDZD 060000Z 13004KT 9999 BKN041 08/03 Q1026
Zagreb (LDZA) 06.12.2019 00:00 UTC Zobrazit METAR
LDZA 060000Z 19003KT 140V230 9999 OVC008 00/M02 Q1026 NOSIG
Zaragoza (LEZG) 06.12.2019 00:00 UTC Zobrazit METAR
LEZG 060000Z 26009KT 9999 SCT040 BKN060 09/07 Q1023
Zhezkazgan (UAKD) Zatím nenačteno  
Zurich (LSZH) 05.12.2019 23:50 UTC Zobrazit METAR
LSZH 052350Z 24005KT 210V270 3200 BR OVC003 M01/M02 Q1023 TEMPO 2500 OVC002
Reklama

Počasí na Váš email

Emaily jsou bez reklamy a bez spamu



Odhlásit newsletter

Reklama


Lunární kalendář

  • 12.12.
  • 19.12.
  • 26.12.
  • 03.01.



Reklama


Reklama
Povinné ručení
Reklama



Reklama